sensor_id;sensor_type;location;lat;lon;timestamp;temperature;humidity
56137;DHT22;42008;52.934;5.884;2023-04-23T00:00:12;8.20;85.50
56137;DHT22;42008;52.934;5.884;2023-04-23T00:02:39;8.40;99.90
56137;DHT22;42008;52.934;5.884;2023-04-23T00:05:08;8.80;99.90
56137;DHT22;42008;52.934;5.884;2023-04-23T00:07:35;8.60;99.90
56137;DHT22;42008;52.934;5.884;2023-04-23T00:10:01;8.60;1.00
56137;DHT22;42008;52.934;5.884;2023-04-23T00:12:32;8.30;1.00
56137;DHT22;42008;52.934;5.884;2023-04-23T00:14:59;9.70;1.00
56137;DHT22;42008;52.934;5.884;2023-04-23T00:17:25;7.90;1.00
56137;DHT22;42008;52.934;5.884;2023-04-23T00:19:51;9.30;3.20
56137;DHT22;42008;52.934;5.884;2023-04-23T00:22:16;9.60;42.20
56137;DHT22;42008;52.934;5.884;2023-04-23T00:24:42;10.50;71.80
56137;DHT22;42008;52.934;5.884;2023-04-23T00:27:08;8.90;84.60
56137;DHT22;42008;52.934;5.884;2023-04-23T00:29:34;8.90;84.40
56137;DHT22;42008;52.934;5.884;2023-04-23T00:31:59;8.90;99.90
56137;DHT22;42008;52.934;5.884;2023-04-23T00:34:25;8.10;99.90
56137;DHT22;42008;52.934;5.884;2023-04-23T00:36:51;9.10;99.90
56137;DHT22;42008;52.934;5.884;2023-04-23T00:39:16;9.40;99.90
56137;DHT22;42008;52.934;5.884;2023-04-23T00:41:42;8.90;99.90
56137;DHT22;42008;52.934;5.884;2023-04-23T00:44:08;8.30;99.90
56137;DHT22;42008;52.934;5.884;2023-04-23T00:46:35;9.50;99.90
56137;DHT22;42008;52.934;5.884;2023-04-23T00:49:01;8.90;99.90
56137;DHT22;42008;52.934;5.884;2023-04-23T00:51:28;9.20;99.90
56137;DHT22;42008;52.934;5.884;2023-04-23T00:53:54;9.40;99.90
56137;DHT22;42008;52.934;5.884;2023-04-23T00:56:21;8.70;99.90
56137;DHT22;42008;52.934;5.884;2023-04-23T00:58:47;8.10;99.90
56137;DHT22;42008;52.934;5.884;2023-04-23T01:01:13;9.00;99.90
56137;DHT22;42008;52.934;5.884;2023-04-23T01:03:39;9.20;99.90
56137;DHT22;42008;52.934;5.884;2023-04-23T01:06:06;9.20;99.90
56137;DHT22;42008;52.934;5.884;2023-04-23T01:08:33;8.40;99.90
56137;DHT22;42008;52.934;5.884;2023-04-23T01:10:59;8.00;99.90
56137;DHT22;42008;52.934;5.884;2023-04-23T01:13:26;8.30;99.90
56137;DHT22;42008;52.934;5.884;2023-04-23T01:15:54;8.70;99.90
56137;DHT22;42008;52.934;5.884;2023-04-23T01:18:21;7.80;99.90
56137;DHT22;42008;52.934;5.884;2023-04-23T01:20:47;7.80;99.90
56137;DHT22;42008;52.934;5.884;2023-04-23T01:23:14;8.80;99.90
56137;DHT22;42008;52.934;5.884;2023-04-23T01:25:40;9.30;99.90
56137;DHT22;42008;52.934;5.884;2023-04-23T01:28:07;8.00;99.90
56137;DHT22;42008;52.934;5.884;2023-04-23T01:30:33;8.60;99.90
56137;DHT22;42008;52.934;5.884;2023-04-23T01:32:59;9.30;99.90
56137;DHT22;42008;52.934;5.884;2023-04-23T01:35:25;8.10;99.90
56137;DHT22;42008;52.934;5.884;2023-04-23T01:37:52;9.30;99.90
56137;DHT22;42008;52.934;5.884;2023-04-23T01:40:19;9.30;99.90
56137;DHT22;42008;52.934;5.884;2023-04-23T01:42:46;9.10;99.90
56137;DHT22;42008;52.934;5.884;2023-04-23T01:45:12;8.90;99.90
56137;DHT22;42008;52.934;5.884;2023-04-23T01:47:39;9.50;99.90
56137;DHT22;42008;52.934;5.884;2023-04-23T01:50:06;8.70;99.90
56137;DHT22;42008;52.934;5.884;2023-04-23T01:52:32;9.60;99.90
56137;DHT22;42008;52.934;5.884;2023-04-23T01:54:57;9.50;99.90
56137;DHT22;42008;52.934;5.884;2023-04-23T01:57:23;9.70;99.90
56137;DHT22;42008;52.934;5.884;2023-04-23T01:59:55;9.20;1.00
56137;DHT22;42008;52.934;5.884;2023-04-23T02:02:22;9.50;1.00
56137;DHT22;42008;52.934;5.884;2023-04-23T02:04:48;9.00;1.00
56137;DHT22;42008;52.934;5.884;2023-04-23T02:07:14;10.40;1.00
56137;DHT22;42008;52.934;5.884;2023-04-23T02:09:40;9.60;1.00
56137;DHT22;42008;52.934;5.884;2023-04-23T02:12:06;8.90;1.00
56137;DHT22;42008;52.934;5.884;2023-04-23T02:14:31;9.60;1.00
56137;DHT22;42008;52.934;5.884;2023-04-23T02:16:57;9.10;1.00
56137;DHT22;42008;52.934;5.884;2023-04-23T02:19:22;9.90;1.00
56137;DHT22;42008;52.934;5.884;2023-04-23T02:21:48;9.10;1.00
56137;DHT22;42008;52.934;5.884;2023-04-23T02:24:13;9.40;1.00
56137;DHT22;42008;52.934;5.884;2023-04-23T02:26:39;10.00;50.90
56137;DHT22;42008;52.934;5.884;2023-04-23T02:29:05;9.80;94.60
56137;DHT22;42008;52.934;5.884;2023-04-23T02:31:30;9.60;99.90
56137;DHT22;42008;52.934;5.884;2023-04-23T02:33:56;9.60;99.90
56137;DHT22;42008;52.934;5.884;2023-04-23T02:36:22;9.90;99.90
56137;DHT22;42008;52.934;5.884;2023-04-23T02:38:48;9.70;99.90
56137;DHT22;42008;52.934;5.884;2023-04-23T02:41:15;9.60;99.90
56137;DHT22;42008;52.934;5.884;2023-04-23T02:43:41;10.50;99.90
56137;DHT22;42008;52.934;5.884;2023-04-23T02:46:07;9.20;99.90
56137;DHT22;42008;52.934;5.884;2023-04-23T02:48:38;9.40;99.90
56137;DHT22;42008;52.934;5.884;2023-04-23T02:51:04;9.80;99.90
56137;DHT22;42008;52.934;5.884;2023-04-23T02:53:31;10.00;99.90
56137;DHT22;42008;52.934;5.884;2023-04-23T02:55:56;9.70;99.90
56137;DHT22;42008;52.934;5.884;2023-04-23T02:58:22;9.20;99.90
56137;DHT22;42008;52.934;5.884;2023-04-23T03:00:48;9.70;99.90
56137;DHT22;42008;52.934;5.884;2023-04-23T03:03:13;9.50;99.90
56137;DHT22;42008;52.934;5.884;2023-04-23T03:05:39;9.30;99.90
56137;DHT22;42008;52.934;5.884;2023-04-23T03:08:04;10.90;99.90
56137;DHT22;42008;52.934;5.884;2023-04-23T03:10:30;9.60;99.90
56137;DHT22;42008;52.934;5.884;2023-04-23T03:12:56;9.60;99.90
56137;DHT22;42008;52.934;5.884;2023-04-23T03:15:21;9.80;99.90
56137;DHT22;42008;52.934;5.884;2023-04-23T03:17:47;9.80;99.90
56137;DHT22;42008;52.934;5.884;2023-04-23T03:20:13;9.20;99.90
56137;DHT22;42008;52.934;5.884;2023-04-23T03:22:39;9.50;99.90
56137;DHT22;42008;52.934;5.884;2023-04-23T03:25:05;9.50;99.90
56137;DHT22;42008;52.934;5.884;2023-04-23T03:27:31;10.40;99.90
56137;DHT22;42008;52.934;5.884;2023-04-23T03:29:56;9.50;99.90
56137;DHT22;42008;52.934;5.884;2023-04-23T03:32:22;11.00;99.90
56137;DHT22;42008;52.934;5.884;2023-04-23T03:34:48;10.40;99.90
56137;DHT22;42008;52.934;5.884;2023-04-23T03:37:14;11.10;99.90
56137;DHT22;42008;52.934;5.884;2023-04-23T03:39:39;10.90;99.90
56137;DHT22;42008;52.934;5.884;2023-04-23T03:42:05;11.20;99.90
56137;DHT22;42008;52.934;5.884;2023-04-23T03:44:31;9.80;99.90
56137;DHT22;42008;52.934;5.884;2023-04-23T03:46:56;9.30;99.90
56137;DHT22;42008;52.934;5.884;2023-04-23T03:49:22;9.60;99.90
56137;DHT22;42008;52.934;5.884;2023-04-23T03:51:47;10.50;99.90
56137;DHT22;42008;52.934;5.884;2023-04-23T03:54:13;9.60;99.90
56137;DHT22;42008;52.934;5.884;2023-04-23T03:56:38;10.80;99.90
56137;DHT22;42008;52.934;5.884;2023-04-23T03:59:04;10.60;99.90
56137;DHT22;42008;52.934;5.884;2023-04-23T04:01:30;10.60;99.90
56137;DHT22;42008;52.934;5.884;2023-04-23T04:03:57;11.00;99.90
56137;DHT22;42008;52.934;5.884;2023-04-23T04:06:22;9.60;99.90
56137;DHT22;42008;52.934;5.884;2023-04-23T04:08:48;10.30;99.90
56137;DHT22;42008;52.934;5.884;2023-04-23T04:11:14;9.90;99.90
56137;DHT22;42008;52.934;5.884;2023-04-23T04:13:39;10.00;99.90
56137;DHT22;42008;52.934;5.884;2023-04-23T04:16:05;10.00;99.90
56137;DHT22;42008;52.934;5.884;2023-04-23T04:18:30;10.50;99.90
56137;DHT22;42008;52.934;5.884;2023-04-23T04:20:56;9.40;99.90
56137;DHT22;42008;52.934;5.884;2023-04-23T04:23:22;9.30;99.90
56137;DHT22;42008;52.934;5.884;2023-04-23T04:25:47;10.90;99.90
56137;DHT22;42008;52.934;5.884;2023-04-23T04:28:15;10.90;99.90
56137;DHT22;42008;52.934;5.884;2023-04-23T04:30:41;9.90;99.90
56137;DHT22;42008;52.934;5.884;2023-04-23T04:33:07;9.80;99.90
56137;DHT22;42008;52.934;5.884;2023-04-23T04:35:33;9.30;99.90
56137;DHT22;42008;52.934;5.884;2023-04-23T04:37:59;10.50;99.90
56137;DHT22;42008;52.934;5.884;2023-04-23T04:40:25;9.50;99.90
56137;DHT22;42008;52.934;5.884;2023-04-23T04:42:51;10.60;99.90
56137;DHT22;42008;52.934;5.884;2023-04-23T04:45:17;9.40;99.90
56137;DHT22;42008;52.934;5.884;2023-04-23T04:47:44;10.30;99.90
56137;DHT22;42008;52.934;5.884;2023-04-23T04:50:10;10.80;99.90
56137;DHT22;42008;52.934;5.884;2023-04-23T04:52:35;10.20;99.90
56137;DHT22;42008;52.934;5.884;2023-04-23T04:55:01;9.80;99.90
56137;DHT22;42008;52.934;5.884;2023-04-23T04:57:27;10.90;99.90
56137;DHT22;42008;52.934;5.884;2023-04-23T04:59:52;10.90;99.90
56137;DHT22;42008;52.934;5.884;2023-04-23T05:02:18;9.60;99.90
56137;DHT22;42008;52.934;5.884;2023-04-23T05:04:45;11.00;99.90
56137;DHT22;42008;52.934;5.884;2023-04-23T05:07:11;9.70;99.90
56137;DHT22;42008;52.934;5.884;2023-04-23T05:09:36;11.10;99.90
56137;DHT22;42008;52.934;5.884;2023-04-23T05:12:02;9.60;99.90
56137;DHT22;42008;52.934;5.884;2023-04-23T05:14:28;10.10;99.90
56137;DHT22;42008;52.934;5.884;2023-04-23T05:16:54;10.80;99.90
56137;DHT22;42008;52.934;5.884;2023-04-23T05:19:19;9.70;99.90
56137;DHT22;42008;52.934;5.884;2023-04-23T05:21:45;9.90;99.90
56137;DHT22;42008;52.934;5.884;2023-04-23T05:24:10;10.20;99.90
56137;DHT22;42008;52.934;5.884;2023-04-23T05:26:36;10.90;98.80
56137;DHT22;42008;52.934;5.884;2023-04-23T05:29:02;9.80;40.10
56137;DHT22;42008;52.934;5.884;2023-04-23T05:31:28;10.80;1.00
56137;DHT22;42008;52.934;5.884;2023-04-23T05:33:54;11.20;1.00
56137;DHT22;42008;52.934;5.884;2023-04-23T05:36:19;9.90;1.00
56137;DHT22;42008;52.934;5.884;2023-04-23T05:38:46;10.80;1.00
56137;DHT22;42008;52.934;5.884;2023-04-23T05:41:11;9.60;1.00
56137;DHT22;42008;52.934;5.884;2023-04-23T05:43:37;9.90;1.00
56137;DHT22;42008;52.934;5.884;2023-04-23T05:46:02;10.90;1.00
56137;DHT22;42008;52.934;5.884;2023-04-23T05:48:32;10.90;1.00
56137;DHT22;42008;52.934;5.884;2023-04-23T05:50:58;10.70;1.00
56137;DHT22;42008;52.934;5.884;2023-04-23T05:53:24;11.20;1.00
56137;DHT22;42008;52.934;5.884;2023-04-23T05:55:50;11.10;1.00
56137;DHT22;42008;52.934;5.884;2023-04-23T05:58:15;11.10;1.00
56137;DHT22;42008;52.934;5.884;2023-04-23T06:00:43;10.90;1.00
56137;DHT22;42008;52.934;5.884;2023-04-23T06:03:09;11.10;99.90
56137;DHT22;42008;52.934;5.884;2023-04-23T06:05:35;11.10;99.90
56137;DHT22;42008;52.934;5.884;2023-04-23T06:08:02;11.40;99.90
56137;DHT22;42008;52.934;5.884;2023-04-23T06:10:28;10.60;99.90
56137;DHT22;42008;52.934;5.884;2023-04-23T06:12:54;12.60;99.90
56137;DHT22;42008;52.934;5.884;2023-04-23T06:15:20;11.00;99.90
56137;DHT22;42008;52.934;5.884;2023-04-23T06:17:47;10.40;99.90
56137;DHT22;42008;52.934;5.884;2023-04-23T06:20:12;11.10;99.90
56137;DHT22;42008;52.934;5.884;2023-04-23T06:22:38;10.90;99.90
56137;DHT22;42008;52.934;5.884;2023-04-23T06:25:04;11.40;99.90
56137;DHT22;42008;52.934;5.884;2023-04-23T06:27:30;12.30;32.70
56137;DHT22;42008;52.934;5.884;2023-04-23T06:29:57;11.00;1.00
56137;DHT22;42008;52.934;5.884;2023-04-23T06:32:23;11.30;1.00
56137;DHT22;42008;52.934;5.884;2023-04-23T06:34:48;11.30;99.90
56137;DHT22;42008;52.934;5.884;2023-04-23T06:37:14;11.30;99.90
56137;DHT22;42008;52.934;5.884;2023-04-23T06:39:40;11.50;99.90
56137;DHT22;42008;52.934;5.884;2023-04-23T06:42:05;12.00;99.90
56137;DHT22;42008;52.934;5.884;2023-04-23T06:44:31;11.60;10.90
56137;DHT22;42008;52.934;5.884;2023-04-23T06:46:56;11.90;32.10
56137;DHT22;42008;52.934;5.884;2023-04-23T06:49:22;13.00;4.10
56137;DHT22;42008;52.934;5.884;2023-04-23T06:51:47;12.30;1.00
56137;DHT22;42008;52.934;5.884;2023-04-23T06:54:13;13.40;1.00
56137;DHT22;42008;52.934;5.884;2023-04-23T06:56:38;13.00;1.00
56137;DHT22;42008;52.934;5.884;2023-04-23T06:59:04;12.70;1.00
56137;DHT22;42008;52.934;5.884;2023-04-23T07:01:31;13.30;1.00
56137;DHT22;42008;52.934;5.884;2023-04-23T07:03:56;13.40;99.90
56137;DHT22;42008;52.934;5.884;2023-04-23T07:06:22;13.20;99.90
56137;DHT22;42008;52.934;5.884;2023-04-23T07:08:47;12.90;99.90
56137;DHT22;42008;52.934;5.884;2023-04-23T07:11:13;12.70;99.90
56137;DHT22;42008;52.934;5.884;2023-04-23T07:13:39;13.00;99.90
56137;DHT22;42008;52.934;5.884;2023-04-23T07:16:04;12.90;99.90
56137;DHT22;42008;52.934;5.884;2023-04-23T07:18:30;12.80;99.90
56137;DHT22;42008;52.934;5.884;2023-04-23T07:20:56;13.30;99.90
56137;DHT22;42008;52.934;5.884;2023-04-23T07:23:21;13.30;32.60
56137;DHT22;42008;52.934;5.884;2023-04-23T07:25:47;13.40;1.00
56137;DHT22;42008;52.934;5.884;2023-04-23T07:28:12;13.30;99.90
56137;DHT22;42008;52.934;5.884;2023-04-23T07:30:38;13.50;99.90
56137;DHT22;42008;52.934;5.884;2023-04-23T07:33:04;13.00;99.90
56137;DHT22;42008;52.934;5.884;2023-04-23T07:35:29;13.80;99.90
56137;DHT22;42008;52.934;5.884;2023-04-23T07:37:55;13.60;99.90
56137;DHT22;42008;52.934;5.884;2023-04-23T07:40:22;13.30;99.90
56137;DHT22;42008;52.934;5.884;2023-04-23T07:42:49;13.40;96.90
56137;DHT22;42008;52.934;5.884;2023-04-23T07:45:15;14.10;99.90
56137;DHT22;42008;52.934;5.884;2023-04-23T07:47:40;13.30;99.90
56137;DHT22;42008;52.934;5.884;2023-04-23T07:50:07;13.50;99.90
56137;DHT22;42008;52.934;5.884;2023-04-23T07:52:32;14.30;99.90
56137;DHT22;42008;52.934;5.884;2023-04-23T07:54:58;14.90;65.80
56137;DHT22;42008;52.934;5.884;2023-04-23T07:57:23;13.70;62.00
56137;DHT22;42008;52.934;5.884;2023-04-23T07:59:49;15.10;1.00
56137;DHT22;42008;52.934;5.884;2023-04-23T08:02:14;13.50;1.00
56137;DHT22;42008;52.934;5.884;2023-04-23T08:04:42;14.10;1.00
56137;DHT22;42008;52.934;5.884;2023-04-23T08:07:08;13.70;1.00
56137;DHT22;42008;52.934;5.884;2023-04-23T08:09:33;15.10;99.90
56137;DHT22;42008;52.934;5.884;2023-04-23T08:11:59;15.00;99.90
56137;DHT22;42008;52.934;5.884;2023-04-23T08:14:24;14.90;99.90
56137;DHT22;42008;52.934;5.884;2023-04-23T08:16:50;15.20;99.90
56137;DHT22;42008;52.934;5.884;2023-04-23T08:19:15;15.60;99.90
56137;DHT22;42008;52.934;5.884;2023-04-23T08:21:41;15.20;1.00
56137;DHT22;42008;52.934;5.884;2023-04-23T08:24:06;15.70;18.80
56137;DHT22;42008;52.934;5.884;2023-04-23T08:26:32;15.60;1.00
56137;DHT22;42008;52.934;5.884;2023-04-23T08:28:58;15.80;1.00
56137;DHT22;42008;52.934;5.884;2023-04-23T08:31:25;15.90;99.90
56137;DHT22;42008;52.934;5.884;2023-04-23T08:33:51;15.30;99.90
56137;DHT22;42008;52.934;5.884;2023-04-23T08:36:17;15.00;99.90
56137;DHT22;42008;52.934;5.884;2023-04-23T08:38:42;15.70;99.90
56137;DHT22;42008;52.934;5.884;2023-04-23T08:41:09;15.80;99.90
56137;DHT22;42008;52.934;5.884;2023-04-23T08:44:12;16.60;99.90
56137;DHT22;42008;52.934;5.884;2023-04-23T08:46:41;14.90;99.90
56137;DHT22;42008;52.934;5.884;2023-04-23T08:49:12;17.00;42.90
56137;DHT22;42008;52.934;5.884;2023-04-23T08:51:42;15.10;99.90
56137;DHT22;42008;52.934;5.884;2023-04-23T08:54:08;15.70;99.90
56137;DHT22;42008;52.934;5.884;2023-04-23T08:56:38;15.50;99.90
56137;DHT22;42008;52.934;5.884;2023-04-23T08:59:04;17.10;1.00
56137;DHT22;42008;52.934;5.884;2023-04-23T09:01:30;18.20;99.90
56137;DHT22;42008;52.934;5.884;2023-04-23T09:03:56;15.70;1.00
56137;DHT22;42008;52.934;5.884;2023-04-23T09:06:22;17.40;1.00
56137;DHT22;42008;52.934;5.884;2023-04-23T09:08:48;17.10;1.00
56137;DHT22;42008;52.934;5.884;2023-04-23T09:11:14;16.80;1.00
56137;DHT22;42008;52.934;5.884;2023-04-23T09:13:41;17.20;99.90
56137;DHT22;42008;52.934;5.884;2023-04-23T09:16:07;16.20;99.90
56137;DHT22;42008;52.934;5.884;2023-04-23T09:18:33;16.90;1.00
56137;DHT22;42008;52.934;5.884;2023-04-23T09:21:00;17.20;99.90
56137;DHT22;42008;52.934;5.884;2023-04-23T09:23:25;15.90;99.90
56137;DHT22;42008;52.934;5.884;2023-04-23T09:25:51;16.60;99.90
56137;DHT22;42008;52.934;5.884;2023-04-23T09:28:17;16.90;23.70
56137;DHT22;42008;52.934;5.884;2023-04-23T09:30:43;15.90;99.90
56137;DHT22;42008;52.934;5.884;2023-04-23T09:33:10;17.00;99.90
56137;DHT22;42008;52.934;5.884;2023-04-23T09:35:36;16.00;99.90
56137;DHT22;42008;52.934;5.884;2023-04-23T09:38:03;16.00;1.00
56137;DHT22;42008;52.934;5.884;2023-04-23T09:40:32;16.10;1.00
56137;DHT22;42008;52.934;5.884;2023-04-23T09:42:58;16.00;74.80
56137;DHT22;42008;52.934;5.884;2023-04-23T09:45:23;17.10;99.90
56137;DHT22;42008;52.934;5.884;2023-04-23T09:47:55;17.40;1.00
56137;DHT22;42008;52.934;5.884;2023-04-23T09:50:35;17.30;55.80
56137;DHT22;42008;52.934;5.884;2023-04-23T09:53:01;16.90;1.00
56137;DHT22;42008;52.934;5.884;2023-04-23T09:55:37;17.50;32.90
56137;DHT22;42008;52.934;5.884;2023-04-23T09:58:04;17.10;1.00
56137;DHT22;42008;52.934;5.884;2023-04-23T10:00:35;17.40;99.90
56137;DHT22;42008;52.934;5.884;2023-04-23T10:03:01;17.50;1.00
56137;DHT22;42008;52.934;5.884;2023-04-23T10:05:27;16.30;1.00
56137;DHT22;42008;52.934;5.884;2023-04-23T10:07:54;16.90;99.90
56137;DHT22;42008;52.934;5.884;2023-04-23T10:10:21;16.30;1.00
56137;DHT22;42008;52.934;5.884;2023-04-23T10:12:47;17.10;1.00
56137;DHT22;42008;52.934;5.884;2023-04-23T10:15:13;17.00;1.00
56137;DHT22;42008;52.934;5.884;2023-04-23T10:17:40;16.10;1.00
56137;DHT22;42008;52.934;5.884;2023-04-23T10:20:07;18.20;1.00
56137;DHT22;42008;52.934;5.884;2023-04-23T10:22:34;17.50;99.90
56137;DHT22;42008;52.934;5.884;2023-04-23T10:25:03;18.00;1.00
56137;DHT22;42008;52.934;5.884;2023-04-23T10:27:30;18.00;1.00
56137;DHT22;42008;52.934;5.884;2023-04-23T10:29:58;19.10;1.00
56137;DHT22;42008;52.934;5.884;2023-04-23T10:32:26;18.50;1.00
56137;DHT22;42008;52.934;5.884;2023-04-23T10:34:52;18.40;99.90
56137;DHT22;42008;52.934;5.884;2023-04-23T10:37:18;19.80;99.90
56137;DHT22;42008;52.934;5.884;2023-04-23T10:39:48;18.60;99.90
56137;DHT22;42008;52.934;5.884;2023-04-23T10:42:15;18.60;99.90
56137;DHT22;42008;52.934;5.884;2023-04-23T10:44:42;18.60;99.90
56137;DHT22;42008;52.934;5.884;2023-04-23T10:47:13;17.70;99.90
56137;DHT22;42008;52.934;5.884;2023-04-23T10:49:39;18.40;44.40
56137;DHT22;42008;52.934;5.884;2023-04-23T10:52:15;18.40;99.90
56137;DHT22;42008;52.934;5.884;2023-04-23T10:54:43;18.30;99.90
56137;DHT22;42008;52.934;5.884;2023-04-23T10:57:11;18.50;99.90
56137;DHT22;42008;52.934;5.884;2023-04-23T10:59:39;17.30;70.00
56137;DHT22;42008;52.934;5.884;2023-04-23T11:02:07;18.40;99.90
56137;DHT22;42008;52.934;5.884;2023-04-23T11:04:34;18.00;99.90
56137;DHT22;42008;52.934;5.884;2023-04-23T11:07:05;19.00;99.90
56137;DHT22;42008;52.934;5.884;2023-04-23T11:09:45;20.10;99.90
56137;DHT22;42008;52.934;5.884;2023-04-23T11:14:47;19.40;71.80
56137;DHT22;42008;52.934;5.884;2023-04-23T11:17:15;18.80;1.00
56137;DHT22;42008;52.934;5.884;2023-04-23T11:20:04;20.40;1.00
56137;DHT22;42008;52.934;5.884;2023-04-23T11:22:33;20.40;1.00
56137;DHT22;42008;52.934;5.884;2023-04-23T11:25:01;19.20;99.90
56137;DHT22;42008;52.934;5.884;2023-04-23T11:27:28;19.30;1.00
56137;DHT22;42008;52.934;5.884;2023-04-23T11:29:54;18.20;1.00
56137;DHT22;42008;52.934;5.884;2023-04-23T11:32:21;18.20;1.00
56137;DHT22;42008;52.934;5.884;2023-04-23T11:34:47;19.40;99.90
56137;DHT22;42008;52.934;5.884;2023-04-23T11:37:15;18.60;1.00
56137;DHT22;42008;52.934;5.884;2023-04-23T11:39:43;19.40;1.00
56137;DHT22;42008;52.934;5.884;2023-04-23T11:42:12;20.20;99.90
56137;DHT22;42008;52.934;5.884;2023-04-23T11:44:39;20.00;1.00
56137;DHT22;42008;52.934;5.884;2023-04-23T11:47:10;20.20;1.00
56137;DHT22;42008;52.934;5.884;2023-04-23T11:49:41;19.80;99.90
56137;DHT22;42008;52.934;5.884;2023-04-23T11:52:08;19.70;99.90
56137;DHT22;42008;52.934;5.884;2023-04-23T11:54:33;20.30;1.00
56137;DHT22;42008;52.934;5.884;2023-04-23T11:57:00;18.40;1.00
56137;DHT22;42008;52.934;5.884;2023-04-23T11:59:26;19.50;1.00
56137;DHT22;42008;52.934;5.884;2023-04-23T12:01:56;20.10;1.00
56137;DHT22;42008;52.934;5.884;2023-04-23T12:04:27;19.20;1.00
56137;DHT22;42008;52.934;5.884;2023-04-23T12:06:53;19.50;99.90
56137;DHT22;42008;52.934;5.884;2023-04-23T12:09:22;19.70;1.00
56137;DHT22;42008;52.934;5.884;2023-04-23T12:11:48;18.90;1.00
56137;DHT22;42008;52.934;5.884;2023-04-23T12:14:19;18.20;99.90
56137;DHT22;42008;52.934;5.884;2023-04-23T12:16:47;18.60;99.90
56137;DHT22;42008;52.934;5.884;2023-04-23T12:19:27;19.60;99.90
56137;DHT22;42008;52.934;5.884;2023-04-23T12:21:58;19.30;99.90
56137;DHT22;42008;52.934;5.884;2023-04-23T12:24:46;18.30;99.90
56137;DHT22;42008;52.934;5.884;2023-04-23T12:27:14;17.90;99.90
56137;DHT22;42008;52.934;5.884;2023-04-23T12:29:40;18.40;99.90
56137;DHT22;42008;52.934;5.884;2023-04-23T12:32:10;19.40;99.90
56137;DHT22;42008;52.934;5.884;2023-04-23T12:34:35;19.60;99.90
56137;DHT22;42008;52.934;5.884;2023-04-23T12:37:05;18.60;99.90
56137;DHT22;42008;52.934;5.884;2023-04-23T12:39:32;20.40;99.90
56137;DHT22;42008;52.934;5.884;2023-04-23T12:42:00;20.60;18.80
56137;DHT22;42008;52.934;5.884;2023-04-23T12:44:27;19.40;99.90
56137;DHT22;42008;52.934;5.884;2023-04-23T12:46:54;19.20;99.90
56137;DHT22;42008;52.934;5.884;2023-04-23T12:49:20;20.50;99.90
56137;DHT22;42008;52.934;5.884;2023-04-23T12:51:46;18.90;99.90
56137;DHT22;42008;52.934;5.884;2023-04-23T12:54:12;19.90;99.90
56137;DHT22;42008;52.934;5.884;2023-04-23T12:56:38;20.60;94.30
56137;DHT22;42008;52.934;5.884;2023-04-23T12:59:03;20.80;1.00
56137;DHT22;42008;52.934;5.884;2023-04-23T13:01:30;21.00;1.00
56137;DHT22;42008;52.934;5.884;2023-04-23T13:03:56;20.80;1.00
56137;DHT22;42008;52.934;5.884;2023-04-23T13:06:22;19.90;1.00
56137;DHT22;42008;52.934;5.884;2023-04-23T13:08:49;20.10;1.00
56137;DHT22;42008;52.934;5.884;2023-04-23T13:11:14;20.70;1.00
56137;DHT22;42008;52.934;5.884;2023-04-23T13:13:40;20.40;1.00
56137;DHT22;42008;52.934;5.884;2023-04-23T13:16:06;20.50;1.00
56137;DHT22;42008;52.934;5.884;2023-04-23T13:18:31;20.40;99.90
56137;DHT22;42008;52.934;5.884;2023-04-23T13:20:57;21.00;1.00
56137;DHT22;42008;52.934;5.884;2023-04-23T13:23:23;22.70;99.90
56137;DHT22;42008;52.934;5.884;2023-04-23T13:25:49;21.20;1.00
56137;DHT22;42008;52.934;5.884;2023-04-23T13:28:14;20.70;1.00
56137;DHT22;42008;52.934;5.884;2023-04-23T13:30:40;20.80;1.00
56137;DHT22;42008;52.934;5.884;2023-04-23T13:33:05;20.60;1.00
56137;DHT22;42008;52.934;5.884;2023-04-23T13:35:31;20.40;1.00
56137;DHT22;42008;52.934;5.884;2023-04-23T13:37:57;20.30;1.00
56137;DHT22;42008;52.934;5.884;2023-04-23T13:40:24;22.20;1.00
56137;DHT22;42008;52.934;5.884;2023-04-23T13:42:50;20.70;1.00
56137;DHT22;42008;52.934;5.884;2023-04-23T13:45:17;20.30;1.00
56137;DHT22;42008;52.934;5.884;2023-04-23T13:47:43;20.40;1.00
56137;DHT22;42008;52.934;5.884;2023-04-23T13:50:09;20.30;99.90
56137;DHT22;42008;52.934;5.884;2023-04-23T13:52:35;20.20;99.90
56137;DHT22;42008;52.934;5.884;2023-04-23T13:55:02;21.10;99.90
56137;DHT22;42008;52.934;5.884;2023-04-23T13:57:28;20.50;99.90
56137;DHT22;42008;52.934;5.884;2023-04-23T13:59:54;21.50;99.90
56137;DHT22;42008;52.934;5.884;2023-04-23T14:02:20;20.90;99.90
56137;DHT22;42008;52.934;5.884;2023-04-23T14:04:46;22.80;99.90
56137;DHT22;42008;52.934;5.884;2023-04-23T14:07:11;20.60;99.90
56137;DHT22;42008;52.934;5.884;2023-04-23T14:09:37;20.40;1.00
56137;DHT22;42008;52.934;5.884;2023-04-23T14:12:03;20.80;99.90
56137;DHT22;42008;52.934;5.884;2023-04-23T14:14:29;20.00;1.00
56137;DHT22;42008;52.934;5.884;2023-04-23T14:16:55;21.20;99.90
56137;DHT22;42008;52.934;5.884;2023-04-23T14:19:20;20.90;99.90
56137;DHT22;42008;52.934;5.884;2023-04-23T14:21:46;21.40;99.90
56137;DHT22;42008;52.934;5.884;2023-04-23T14:24:32;21.30;99.90
56137;DHT22;42008;52.934;5.884;2023-04-23T14:26:58;22.10;99.90
56137;DHT22;42008;52.934;5.884;2023-04-23T14:31:52;20.30;99.90
56137;DHT22;42008;52.934;5.884;2023-04-23T14:34:18;21.10;99.90
56137;DHT22;42008;52.934;5.884;2023-04-23T14:36:43;20.80;99.90
56137;DHT22;42008;52.934;5.884;2023-04-23T14:39:10;19.70;99.90
56137;DHT22;42008;52.934;5.884;2023-04-23T14:41:36;20.30;99.90
56137;DHT22;42008;52.934;5.884;2023-04-23T14:44:04;19.90;99.90
56137;DHT22;42008;52.934;5.884;2023-04-23T14:46:29;20.40;1.00
56137;DHT22;42008;52.934;5.884;2023-04-23T14:48:55;20.00;1.00
56137;DHT22;42008;52.934;5.884;2023-04-23T14:51:21;20.60;99.90
56137;DHT22;42008;52.934;5.884;2023-04-23T14:53:46;19.70;99.90
56137;DHT22;42008;52.934;5.884;2023-04-23T14:56:12;20.30;1.00
56137;DHT22;42008;52.934;5.884;2023-04-23T14:58:37;20.40;1.00
56137;DHT22;42008;52.934;5.884;2023-04-23T15:01:03;19.30;1.00
56137;DHT22;42008;52.934;5.884;2023-04-23T15:03:29;19.40;1.00
56137;DHT22;42008;52.934;5.884;2023-04-23T15:05:55;20.10;1.00
56137;DHT22;42008;52.934;5.884;2023-04-23T15:08:20;19.60;1.00
56137;DHT22;42008;52.934;5.884;2023-04-23T15:10:46;20.10;1.00
56137;DHT22;42008;52.934;5.884;2023-04-23T15:15:48;18.50;1.00
56137;DHT22;42008;52.934;5.884;2023-04-23T15:18:15;19.50;1.00
56137;DHT22;42008;52.934;5.884;2023-04-23T15:20:42;19.80;1.00
56137;DHT22;42008;52.934;5.884;2023-04-23T15:23:08;19.10;1.00
56137;DHT22;42008;52.934;5.884;2023-04-23T15:25:34;18.40;1.00
56137;DHT22;42008;52.934;5.884;2023-04-23T15:28:01;18.80;1.00
56137;DHT22;42008;52.934;5.884;2023-04-23T15:30:27;18.40;1.00
56137;DHT22;42008;52.934;5.884;2023-04-23T15:32:53;18.00;99.90
56137;DHT22;42008;52.934;5.884;2023-04-23T15:35:23;17.60;99.90
56137;DHT22;42008;52.934;5.884;2023-04-23T15:37:49;17.30;99.90
56137;DHT22;42008;52.934;5.884;2023-04-23T15:40:15;16.80;99.90
56137;DHT22;42008;52.934;5.884;2023-04-23T15:42:41;16.40;1.00